sensor_id;sensor_type;location;lat;lon;timestamp;temperature;humidity
38380;DHT22;38377;47.418;18.882;2022-12-18T00:01:50;-2.40;99.90
38380;DHT22;38377;47.418;18.882;2022-12-18T00:04:22;-2.50;99.90
38380;DHT22;38377;47.418;18.882;2022-12-18T00:06:48;-2.40;99.90
38380;DHT22;38377;47.418;18.882;2022-12-18T00:09:14;-2.50;99.90
38380;DHT22;38377;47.418;18.882;2022-12-18T00:11:40;-2.50;99.90
38380;DHT22;38377;47.418;18.882;2022-12-18T00:14:06;-2.50;99.90
38380;DHT22;38377;47.418;18.882;2022-12-18T00:16:32;-2.50;99.90
38380;DHT22;38377;47.418;18.882;2022-12-18T00:19:01;-2.50;99.90
38380;DHT22;38377;47.418;18.882;2022-12-18T00:21:28;-2.60;99.90
38380;DHT22;38377;47.418;18.882;2022-12-18T00:23:54;-2.60;99.90
38380;DHT22;38377;47.418;18.882;2022-12-18T00:26:23;-2.60;99.90
38380;DHT22;38377;47.418;18.882;2022-12-18T00:28:49;-2.60;99.90
38380;DHT22;38377;47.418;18.882;2022-12-18T00:31:18;-2.60;99.90
38380;DHT22;38377;47.418;18.882;2022-12-18T00:33:44;-2.60;99.90
38380;DHT22;38377;47.418;18.882;2022-12-18T00:36:13;-2.60;99.90
38380;DHT22;38377;47.418;18.882;2022-12-18T00:38:40;-2.70;99.90
38380;DHT22;38377;47.418;18.882;2022-12-18T00:41:06;-2.70;99.90
38380;DHT22;38377;47.418;18.882;2022-12-18T00:43:33;-2.70;99.90
38380;DHT22;38377;47.418;18.882;2022-12-18T00:45:59;-2.70;99.90
38380;DHT22;38377;47.418;18.882;2022-12-18T00:48:25;-2.70;99.90
38380;DHT22;38377;47.418;18.882;2022-12-18T00:50:50;-2.80;99.90
38380;DHT22;38377;47.418;18.882;2022-12-18T00:53:17;-2.80;99.90
38380;DHT22;38377;47.418;18.882;2022-12-18T00:55:43;-2.80;99.90
38380;DHT22;38377;47.418;18.882;2022-12-18T00:58:10;-2.80;99.90
38380;DHT22;38377;47.418;18.882;2022-12-18T01:00:36;-2.80;99.90
38380;DHT22;38377;47.418;18.882;2022-12-18T01:03:04;-2.80;99.90
38380;DHT22;38377;47.418;18.882;2022-12-18T01:05:30;-2.80;99.90
38380;DHT22;38377;47.418;18.882;2022-12-18T01:07:56;-2.80;99.90
38380;DHT22;38377;47.418;18.882;2022-12-18T01:10:22;-2.80;99.90
38380;DHT22;38377;47.418;18.882;2022-12-18T01:12:48;-2.80;99.90
38380;DHT22;38377;47.418;18.882;2022-12-18T01:15:15;-2.80;99.90
38380;DHT22;38377;47.418;18.882;2022-12-18T01:17:41;-2.80;99.90
38380;DHT22;38377;47.418;18.882;2022-12-18T01:20:07;-2.80;99.90
38380;DHT22;38377;47.418;18.882;2022-12-18T01:22:34;-2.80;99.90
38380;DHT22;38377;47.418;18.882;2022-12-18T01:25:00;-2.80;99.90
38380;DHT22;38377;47.418;18.882;2022-12-18T01:27:26;-2.80;99.90
38380;DHT22;38377;47.418;18.882;2022-12-18T01:29:51;-2.90;99.90
38380;DHT22;38377;47.418;18.882;2022-12-18T01:32:17;-2.80;99.90
38380;DHT22;38377;47.418;18.882;2022-12-18T01:34:43;-2.90;99.90
38380;DHT22;38377;47.418;18.882;2022-12-18T01:37:08;-2.90;99.90
38380;DHT22;38377;47.418;18.882;2022-12-18T01:39:34;-2.80;99.90
38380;DHT22;38377;47.418;18.882;2022-12-18T01:42:02;-2.80;99.90
38380;DHT22;38377;47.418;18.882;2022-12-18T01:47:35;-2.90;99.90
38380;DHT22;38377;47.418;18.882;2022-12-18T01:50:28;-2.90;99.90
38380;DHT22;38377;47.418;18.882;2022-12-18T01:52:53;-2.90;99.90
38380;DHT22;38377;47.418;18.882;2022-12-18T01:55:23;-2.90;99.90
38380;DHT22;38377;47.418;18.882;2022-12-18T01:57:52;-2.90;99.90
38380;DHT22;38377;47.418;18.882;2022-12-18T02:00:21;-2.90;99.90
38380;DHT22;38377;47.418;18.882;2022-12-18T02:02:47;-2.90;99.90
38380;DHT22;38377;47.418;18.882;2022-12-18T02:05:20;-2.90;99.90
38380;DHT22;38377;47.418;18.882;2022-12-18T02:10:27;-2.90;99.90
38380;DHT22;38377;47.418;18.882;2022-12-18T02:13:14;-2.90;99.90
38380;DHT22;38377;47.418;18.882;2022-12-18T02:18:57;-2.90;99.90
38380;DHT22;38377;47.418;18.882;2022-12-18T02:21:46;-2.90;99.90
38380;DHT22;38377;47.418;18.882;2022-12-18T02:24:29;-2.90;99.90
38380;DHT22;38377;47.418;18.882;2022-12-18T02:27:03;-2.90;99.90
38380;DHT22;38377;47.418;18.882;2022-12-18T02:29:40;-2.90;99.90
38380;DHT22;38377;47.418;18.882;2022-12-18T02:32:11;-2.90;99.90
38380;DHT22;38377;47.418;18.882;2022-12-18T02:34:40;-2.90;99.90
38380;DHT22;38377;47.418;18.882;2022-12-18T02:37:09;-2.90;99.90
38380;DHT22;38377;47.418;18.882;2022-12-18T02:39:41;-3.00;99.90
38380;DHT22;38377;47.418;18.882;2022-12-18T02:42:07;-3.00;99.90
38380;DHT22;38377;47.418;18.882;2022-12-18T02:44:42;-3.00;99.90
38380;DHT22;38377;47.418;18.882;2022-12-18T02:47:11;-2.90;99.90
38380;DHT22;38377;47.418;18.882;2022-12-18T02:58:47;-3.00;99.90
38380;DHT22;38377;47.418;18.882;2022-12-18T03:01:24;-3.00;99.90
38380;DHT22;38377;47.418;18.882;2022-12-18T03:03:58;-3.00;99.90
38380;DHT22;38377;47.418;18.882;2022-12-18T03:06:53;-3.00;99.90
38380;DHT22;38377;47.418;18.882;2022-12-18T03:09:24;-3.00;99.90
38380;DHT22;38377;47.418;18.882;2022-12-18T03:11:56;-3.00;99.90
38380;DHT22;38377;47.418;18.882;2022-12-18T03:14:43;-3.00;99.90
38380;DHT22;38377;47.418;18.882;2022-12-18T03:17:13;-3.00;99.90
38380;DHT22;38377;47.418;18.882;2022-12-18T03:19:42;-3.00;99.90
38380;DHT22;38377;47.418;18.882;2022-12-18T03:22:10;-3.00;99.90
38380;DHT22;38377;47.418;18.882;2022-12-18T03:24:36;-3.00;99.90
38380;DHT22;38377;47.418;18.882;2022-12-18T03:27:08;-3.00;99.90
38380;DHT22;38377;47.418;18.882;2022-12-18T03:29:45;-3.00;99.90
38380;DHT22;38377;47.418;18.882;2022-12-18T03:32:15;-3.00;99.90
38380;DHT22;38377;47.418;18.882;2022-12-18T03:34:44;-3.00;99.90
38380;DHT22;38377;47.418;18.882;2022-12-18T03:37:13;-3.10;99.90
38380;DHT22;38377;47.418;18.882;2022-12-18T03:39:38;-3.10;99.90
38380;DHT22;38377;47.418;18.882;2022-12-18T03:44:54;-3.10;99.90
38380;DHT22;38377;47.418;18.882;2022-12-18T03:47:35;-3.10;99.90
38380;DHT22;38377;47.418;18.882;2022-12-18T03:50:07;-3.10;99.90
38380;DHT22;38377;47.418;18.882;2022-12-18T03:53:00;-3.20;99.90
38380;DHT22;38377;47.418;18.882;2022-12-18T03:55:32;-3.20;99.90
38380;DHT22;38377;47.418;18.882;2022-12-18T03:58:01;-3.20;99.90
38380;DHT22;38377;47.418;18.882;2022-12-18T04:00:28;-3.20;99.90
38380;DHT22;38377;47.418;18.882;2022-12-18T04:02:57;-3.20;99.90
38380;DHT22;38377;47.418;18.882;2022-12-18T04:05:25;-3.20;99.90
38380;DHT22;38377;47.418;18.882;2022-12-18T04:07:52;-3.30;99.90
38380;DHT22;38377;47.418;18.882;2022-12-18T04:10:19;-3.30;99.90
38380;DHT22;38377;47.418;18.882;2022-12-18T04:12:45;-3.30;99.90
38380;DHT22;38377;47.418;18.882;2022-12-18T04:15:11;-3.30;99.90
38380;DHT22;38377;47.418;18.882;2022-12-18T04:17:38;-3.30;99.90
38380;DHT22;38377;47.418;18.882;2022-12-18T04:20:05;-3.40;99.90
38380;DHT22;38377;47.418;18.882;2022-12-18T04:22:31;-3.40;99.90
38380;DHT22;38377;47.418;18.882;2022-12-18T04:24:56;-3.40;99.90
38380;DHT22;38377;47.418;18.882;2022-12-18T04:27:22;-3.40;99.90
38380;DHT22;38377;47.418;18.882;2022-12-18T04:29:47;-3.40;99.90
38380;DHT22;38377;47.418;18.882;2022-12-18T04:32:13;-3.40;99.90
38380;DHT22;38377;47.418;18.882;2022-12-18T04:34:39;-3.40;99.90
38380;DHT22;38377;47.418;18.882;2022-12-18T04:37:04;-3.40;99.90
38380;DHT22;38377;47.418;18.882;2022-12-18T04:39:30;-3.50;99.90
38380;DHT22;38377;47.418;18.882;2022-12-18T04:41:56;-3.50;99.90
38380;DHT22;38377;47.418;18.882;2022-12-18T04:44:21;-3.50;99.90
38380;DHT22;38377;47.418;18.882;2022-12-18T04:46:47;-3.50;99.90
38380;DHT22;38377;47.418;18.882;2022-12-18T04:49:13;-3.50;99.90
38380;DHT22;38377;47.418;18.882;2022-12-18T04:51:39;-3.50;99.90
38380;DHT22;38377;47.418;18.882;2022-12-18T04:54:05;-3.50;99.90
38380;DHT22;38377;47.418;18.882;2022-12-18T04:56:31;-3.50;99.90
38380;DHT22;38377;47.418;18.882;2022-12-18T04:58:57;-3.50;99.90
38380;DHT22;38377;47.418;18.882;2022-12-18T05:01:23;-3.50;99.90
38380;DHT22;38377;47.418;18.882;2022-12-18T05:03:50;-3.50;99.90
38380;DHT22;38377;47.418;18.882;2022-12-18T05:06:16;-3.50;99.90
38380;DHT22;38377;47.418;18.882;2022-12-18T05:08:42;-3.50;99.90
38380;DHT22;38377;47.418;18.882;2022-12-18T05:11:11;-3.50;99.90
38380;DHT22;38377;47.418;18.882;2022-12-18T05:13:37;-3.60;99.90
38380;DHT22;38377;47.418;18.882;2022-12-18T05:16:04;-3.50;99.90
38380;DHT22;38377;47.418;18.882;2022-12-18T05:18:30;-3.50;99.90
38380;DHT22;38377;47.418;18.882;2022-12-18T05:20:57;-3.50;99.90
38380;DHT22;38377;47.418;18.882;2022-12-18T05:23:23;-3.50;99.90
38380;DHT22;38377;47.418;18.882;2022-12-18T05:25:57;-3.50;99.90
38380;DHT22;38377;47.418;18.882;2022-12-18T05:28:24;-3.50;99.90
38380;DHT22;38377;47.418;18.882;2022-12-18T05:30:51;-3.60;99.90
38380;DHT22;38377;47.418;18.882;2022-12-18T05:33:18;-3.50;99.90
38380;DHT22;38377;47.418;18.882;2022-12-18T05:35:44;-3.60;99.90
38380;DHT22;38377;47.418;18.882;2022-12-18T05:38:10;-3.60;99.90
38380;DHT22;38377;47.418;18.882;2022-12-18T05:40:36;-3.60;99.90
38380;DHT22;38377;47.418;18.882;2022-12-18T05:43:05;-3.60;99.90
38380;DHT22;38377;47.418;18.882;2022-12-18T05:45:30;-3.60;99.90
38380;DHT22;38377;47.418;18.882;2022-12-18T05:47:56;-3.60;99.90
38380;DHT22;38377;47.418;18.882;2022-12-18T05:50:22;-3.60;99.90
38380;DHT22;38377;47.418;18.882;2022-12-18T05:52:47;-3.60;99.90
38380;DHT22;38377;47.418;18.882;2022-12-18T05:55:13;-3.60;99.90
38380;DHT22;38377;47.418;18.882;2022-12-18T05:57:39;-3.70;99.90
38380;DHT22;38377;47.418;18.882;2022-12-18T06:00:05;-3.60;99.90
38380;DHT22;38377;47.418;18.882;2022-12-18T06:02:30;-3.70;99.90
38380;DHT22;38377;47.418;18.882;2022-12-18T06:04:56;-3.60;99.90
38380;DHT22;38377;47.418;18.882;2022-12-18T06:07:22;-3.70;99.90
38380;DHT22;38377;47.418;18.882;2022-12-18T06:09:47;-3.70;99.90
38380;DHT22;38377;47.418;18.882;2022-12-18T06:12:13;-3.70;99.90
38380;DHT22;38377;47.418;18.882;2022-12-18T06:14:38;-3.70;99.90
38380;DHT22;38377;47.418;18.882;2022-12-18T06:17:04;-3.70;99.90
38380;DHT22;38377;47.418;18.882;2022-12-18T06:19:30;-3.70;99.90
38380;DHT22;38377;47.418;18.882;2022-12-18T06:21:55;-3.70;99.90
38380;DHT22;38377;47.418;18.882;2022-12-18T06:24:24;-3.70;99.90
38380;DHT22;38377;47.418;18.882;2022-12-18T06:26:49;-3.60;99.90
38380;DHT22;38377;47.418;18.882;2022-12-18T06:29:15;-3.70;99.90
38380;DHT22;38377;47.418;18.882;2022-12-18T06:31:41;-3.70;99.90
38380;DHT22;38377;47.418;18.882;2022-12-18T06:34:06;-3.70;99.90
38380;DHT22;38377;47.418;18.882;2022-12-18T06:36:32;-3.60;99.90
38380;DHT22;38377;47.418;18.882;2022-12-18T06:38:58;-3.60;99.90
38380;DHT22;38377;47.418;18.882;2022-12-18T06:41:24;-3.60;99.90
38380;DHT22;38377;47.418;18.882;2022-12-18T06:43:50;-3.60;99.90
38380;DHT22;38377;47.418;18.882;2022-12-18T06:46:16;-3.60;99.90
38380;DHT22;38377;47.418;18.882;2022-12-18T06:48:41;-3.60;99.90
38380;DHT22;38377;47.418;18.882;2022-12-18T06:51:07;-3.60;99.90
38380;DHT22;38377;47.418;18.882;2022-12-18T06:53:33;-3.70;99.90
38380;DHT22;38377;47.418;18.882;2022-12-18T06:56:04;-3.70;99.90
38380;DHT22;38377;47.418;18.882;2022-12-18T06:58:29;-3.60;99.90
38380;DHT22;38377;47.418;18.882;2022-12-18T07:01:03;-3.60;99.90
38380;DHT22;38377;47.418;18.882;2022-12-18T07:03:29;-3.60;99.90
38380;DHT22;38377;47.418;18.882;2022-12-18T07:05:54;-3.60;99.90
38380;DHT22;38377;47.418;18.882;2022-12-18T07:08:20;-3.60;99.90
38380;DHT22;38377;47.418;18.882;2022-12-18T07:10:46;-3.50;99.90
38380;DHT22;38377;47.418;18.882;2022-12-18T07:13:14;-3.50;99.90
38380;DHT22;38377;47.418;18.882;2022-12-18T07:15:40;-3.40;99.90
38380;DHT22;38377;47.418;18.882;2022-12-18T07:18:06;-3.40;99.90
38380;DHT22;38377;47.418;18.882;2022-12-18T07:20:32;-3.30;99.90
38380;DHT22;38377;47.418;18.882;2022-12-18T07:22:58;-3.30;99.90
38380;DHT22;38377;47.418;18.882;2022-12-18T07:25:23;-3.20;99.90
38380;DHT22;38377;47.418;18.882;2022-12-18T07:27:49;-3.10;99.90
38380;DHT22;38377;47.418;18.882;2022-12-18T07:30:15;-3.10;99.90
38380;DHT22;38377;47.418;18.882;2022-12-18T07:32:40;-3.00;99.90
38380;DHT22;38377;47.418;18.882;2022-12-18T07:35:06;-3.00;99.90
38380;DHT22;38377;47.418;18.882;2022-12-18T07:37:32;-2.90;99.90
38380;DHT22;38377;47.418;18.882;2022-12-18T07:39:57;-2.80;99.90
38380;DHT22;38377;47.418;18.882;2022-12-18T07:42:26;-2.70;99.90
38380;DHT22;38377;47.418;18.882;2022-12-18T07:44:59;-2.70;99.90
38380;DHT22;38377;47.418;18.882;2022-12-18T07:47:25;-2.60;99.90
38380;DHT22;38377;47.418;18.882;2022-12-18T07:49:51;-2.60;99.90
38380;DHT22;38377;47.418;18.882;2022-12-18T07:52:17;-2.40;99.90
38380;DHT22;38377;47.418;18.882;2022-12-18T07:54:42;-2.30;99.90
38380;DHT22;38377;47.418;18.882;2022-12-18T07:57:08;-2.30;99.90
38380;DHT22;38377;47.418;18.882;2022-12-18T07:59:34;-2.20;99.90
38380;DHT22;38377;47.418;18.882;2022-12-18T08:01:59;-2.20;99.90
38380;DHT22;38377;47.418;18.882;2022-12-18T08:04:25;-2.10;99.90
38380;DHT22;38377;47.418;18.882;2022-12-18T08:06:51;-2.00;99.90
38380;DHT22;38377;47.418;18.882;2022-12-18T08:09:17;-2.00;99.90
38380;DHT22;38377;47.418;18.882;2022-12-18T08:11:43;-1.90;99.90
38380;DHT22;38377;47.418;18.882;2022-12-18T08:14:09;-1.80;99.90
38380;DHT22;38377;47.418;18.882;2022-12-18T08:16:35;-1.80;99.90
38380;DHT22;38377;47.418;18.882;2022-12-18T08:19:01;-1.70;99.90
38380;DHT22;38377;47.418;18.882;2022-12-18T08:21:29;-1.60;99.90
38380;DHT22;38377;47.418;18.882;2022-12-18T08:23:58;-1.50;99.90
38380;DHT22;38377;47.418;18.882;2022-12-18T08:26:25;-1.50;99.90
38380;DHT22;38377;47.418;18.882;2022-12-18T08:28:53;-1.50;99.90
38380;DHT22;38377;47.418;18.882;2022-12-18T08:31:19;-1.40;99.90
38380;DHT22;38377;47.418;18.882;2022-12-18T08:33:45;-1.40;99.90
38380;DHT22;38377;47.418;18.882;2022-12-18T08:36:13;-1.30;99.90
38380;DHT22;38377;47.418;18.882;2022-12-18T08:38:38;-1.30;99.90
38380;DHT22;38377;47.418;18.882;2022-12-18T08:41:12;-1.30;99.90
38380;DHT22;38377;47.418;18.882;2022-12-18T08:43:38;-1.20;99.90
38380;DHT22;38377;47.418;18.882;2022-12-18T08:46:24;-1.10;99.90
38380;DHT22;38377;47.418;18.882;2022-12-18T08:48:51;-1.00;99.90
38380;DHT22;38377;47.418;18.882;2022-12-18T08:51:18;-0.90;99.90
38380;DHT22;38377;47.418;18.882;2022-12-18T08:53:44;-0.80;99.90
38380;DHT22;38377;47.418;18.882;2022-12-18T08:56:11;-0.70;99.90
38380;DHT22;38377;47.418;18.882;2022-12-18T08:58:37;-0.60;99.90
38380;DHT22;38377;47.418;18.882;2022-12-18T09:01:04;-0.60;99.90
38380;DHT22;38377;47.418;18.882;2022-12-18T09:03:31;-0.50;99.90
38380;DHT22;38377;47.418;18.882;2022-12-18T09:05:57;-0.50;99.90
38380;DHT22;38377;47.418;18.882;2022-12-18T09:08:23;-0.30;99.90
38380;DHT22;38377;47.418;18.882;2022-12-18T09:10:49;-0.20;99.90
38380;DHT22;38377;47.418;18.882;2022-12-18T09:13:16;-0.10;99.90
38380;DHT22;38377;47.418;18.882;2022-12-18T09:15:43;0.00;99.90
38380;DHT22;38377;47.418;18.882;2022-12-18T09:18:11;0.00;99.90
38380;DHT22;38377;47.418;18.882;2022-12-18T09:20:38;0.10;99.90
38380;DHT22;38377;47.418;18.882;2022-12-18T09:23:04;0.20;99.90
38380;DHT22;38377;47.418;18.882;2022-12-18T09:25:31;0.20;99.90
38380;DHT22;38377;47.418;18.882;2022-12-18T09:28:03;0.20;99.90
38380;DHT22;38377;47.418;18.882;2022-12-18T09:30:29;0.20;99.90
38380;DHT22;38377;47.418;18.882;2022-12-18T09:32:55;0.20;99.90
38380;DHT22;38377;47.418;18.882;2022-12-18T09:35:21;0.30;99.90
38380;DHT22;38377;47.418;18.882;2022-12-18T09:37:47;0.40;99.90
38380;DHT22;38377;47.418;18.882;2022-12-18T09:40:22;0.40;99.90
38380;DHT22;38377;47.418;18.882;2022-12-18T09:42:55;0.40;99.90
38380;DHT22;38377;47.418;18.882;2022-12-18T09:45:23;0.50;99.90
38380;DHT22;38377;47.418;18.882;2022-12-18T09:47:51;0.50;99.90
38380;DHT22;38377;47.418;18.882;2022-12-18T09:50:29;0.50;99.90
38380;DHT22;38377;47.418;18.882;2022-12-18T09:52:58;0.60;99.90
38380;DHT22;38377;47.418;18.882;2022-12-18T09:55:35;0.60;99.90
38380;DHT22;38377;47.418;18.882;2022-12-18T09:58:35;0.60;99.90
38380;DHT22;38377;47.418;18.882;2022-12-18T10:01:15;0.60;99.90
38380;DHT22;38377;47.418;18.882;2022-12-18T10:03:43;0.60;99.90
38380;DHT22;38377;47.418;18.882;2022-12-18T10:06:15;0.60;99.90
38380;DHT22;38377;47.418;18.882;2022-12-18T10:13:54;0.60;99.90
38380;DHT22;38377;47.418;18.882;2022-12-18T10:16:35;0.70;99.90
38380;DHT22;38377;47.418;18.882;2022-12-18T10:22:03;0.80;99.90
38380;DHT22;38377;47.418;18.882;2022-12-18T10:24:45;0.90;99.90
38380;DHT22;38377;47.418;18.882;2022-12-18T10:27:16;0.90;99.90
38380;DHT22;38377;47.418;18.882;2022-12-18T10:29:43;0.90;99.90
38380;DHT22;38377;47.418;18.882;2022-12-18T10:32:18;0.80;99.90
38380;DHT22;38377;47.418;18.882;2022-12-18T10:34:46;0.80;99.90
38380;DHT22;38377;47.418;18.882;2022-12-18T10:37:17;0.90;99.90
38380;DHT22;38377;47.418;18.882;2022-12-18T10:39:44;0.90;99.90
38380;DHT22;38377;47.418;18.882;2022-12-18T10:42:17;0.90;99.90
38380;DHT22;38377;47.418;18.882;2022-12-18T10:44:43;1.00;99.90
38380;DHT22;38377;47.418;18.882;2022-12-18T10:47:14;1.10;99.90
38380;DHT22;38377;47.418;18.882;2022-12-18T10:49:51;1.00;99.90
38380;DHT22;38377;47.418;18.882;2022-12-18T10:52:21;1.00;99.90
38380;DHT22;38377;47.418;18.882;2022-12-18T10:54:53;1.10;99.90
38380;DHT22;38377;47.418;18.882;2022-12-18T10:59:56;1.00;99.90
38380;DHT22;38377;47.418;18.882;2022-12-18T11:02:35;1.10;99.90
38380;DHT22;38377;47.418;18.882;2022-12-18T11:05:01;1.10;99.90
38380;DHT22;38377;47.418;18.882;2022-12-18T11:07:48;1.20;99.90
38380;DHT22;38377;47.418;18.882;2022-12-18T11:10:19;1.20;99.90
38380;DHT22;38377;47.418;18.882;2022-12-18T11:12:46;1.20;99.90
38380;DHT22;38377;47.418;18.882;2022-12-18T11:15:21;1.30;99.90
38380;DHT22;38377;47.418;18.882;2022-12-18T11:17:50;1.30;99.90
38380;DHT22;38377;47.418;18.882;2022-12-18T11:20:34;1.30;99.90
38380;DHT22;38377;47.418;18.882;2022-12-18T11:23:05;1.30;99.90
38380;DHT22;38377;47.418;18.882;2022-12-18T11:25:32;1.30;98.40
38380;DHT22;38377;47.418;18.882;2022-12-18T11:28:04;1.40;98.90
38380;DHT22;38377;47.418;18.882;2022-12-18T11:30:35;1.50;99.90
38380;DHT22;38377;47.418;18.882;2022-12-18T11:38:30;1.50;99.70
38380;DHT22;38377;47.418;18.882;2022-12-18T11:41:27;1.60;98.90
38380;DHT22;38377;47.418;18.882;2022-12-18T11:44:26;1.60;99.50
38380;DHT22;38377;47.418;18.882;2022-12-18T11:47:03;1.60;99.50
38380;DHT22;38377;47.418;18.882;2022-12-18T11:49:34;1.70;99.90
38380;DHT22;38377;47.418;18.882;2022-12-18T11:54:35;1.70;99.40
38380;DHT22;38377;47.418;18.882;2022-12-18T11:57:34;1.80;99.00
38380;DHT22;38377;47.418;18.882;2022-12-18T12:22:24;2.00;98.50
38380;DHT22;38377;47.418;18.882;2022-12-18T12:30:21;2.10;98.00
38380;DHT22;38377;47.418;18.882;2022-12-18T12:33:24;2.10;97.50
38380;DHT22;38377;47.418;18.882;2022-12-18T12:36:07;2.10;98.50
38380;DHT22;38377;47.418;18.882;2022-12-18T12:38:46;2.10;98.40
38380;DHT22;38377;47.418;18.882;2022-12-18T12:41:22;2.10;98.40
38380;DHT22;38377;47.418;18.882;2022-12-18T12:44:12;2.10;98.40
38380;DHT22;38377;47.418;18.882;2022-12-18T12:46:41;2.10;98.00
38380;DHT22;38377;47.418;18.882;2022-12-18T12:49:17;2.10;98.20
38380;DHT22;38377;47.418;18.882;2022-12-18T12:51:57;2.10;98.50
38380;DHT22;38377;47.418;18.882;2022-12-18T12:54:28;2.10;98.70
38380;DHT22;38377;47.418;18.882;2022-12-18T12:59:48;2.10;98.10
38380;DHT22;38377;47.418;18.882;2022-12-18T13:02:34;2.10;98.30
38380;DHT22;38377;47.418;18.882;2022-12-18T13:05:18;2.10;97.80
38380;DHT22;38377;47.418;18.882;2022-12-18T13:08:52;2.10;98.00
38380;DHT22;38377;47.418;18.882;2022-12-18T13:10:43;2.10;97.50
38380;DHT22;38377;47.418;18.882;2022-12-18T13:13:13;2.10;97.30
38380;DHT22;38377;47.418;18.882;2022-12-18T13:15:49;2.10;97.70
38380;DHT22;38377;47.418;18.882;2022-12-18T13:18:22;2.10;97.60
38380;DHT22;38377;47.418;18.882;2022-12-18T13:21:02;2.10;97.80
38380;DHT22;38377;47.418;18.882;2022-12-18T13:23:34;2.10;98.20
38380;DHT22;38377;47.418;18.882;2022-12-18T13:31:02;1.90;98.80
38380;DHT22;38377;47.418;18.882;2022-12-18T13:38:34;1.80;99.90
38380;DHT22;38377;47.418;18.882;2022-12-18T13:41:23;1.80;99.90
38380;DHT22;38377;47.418;18.882;2022-12-18T13:43:51;1.70;99.90
38380;DHT22;38377;47.418;18.882;2022-12-18T13:46:27;1.70;99.90
38380;DHT22;38377;47.418;18.882;2022-12-18T13:51:55;1.50;99.90
38380;DHT22;38377;47.418;18.882;2022-12-18T13:56:53;1.50;99.90
38380;DHT22;38377;47.418;18.882;2022-12-18T13:59:21;1.40;99.90
38380;DHT22;38377;47.418;18.882;2022-12-18T14:01:54;1.40;99.90
38380;DHT22;38377;47.418;18.882;2022-12-18T14:07:12;1.40;99.90
38380;DHT22;38377;47.418;18.882;2022-12-18T14:09:39;1.30;99.90
38380;DHT22;38377;47.418;18.882;2022-12-18T14:12:06;1.20;99.90
38380;DHT22;38377;47.418;18.882;2022-12-18T14:14:58;1.20;99.90
38380;DHT22;38377;47.418;18.882;2022-12-18T14:17:24;1.20;99.90
38380;DHT22;38377;47.418;18.882;2022-12-18T14:19:51;1.20;99.90
38380;DHT22;38377;47.418;18.882;2022-12-18T14:22:21;1.20;99.90
38380;DHT22;38377;47.418;18.882;2022-12-18T14:25:26;1.10;99.90
38380;DHT22;38377;47.418;18.882;2022-12-18T14:30:38;1.00;99.90
38380;DHT22;38377;47.418;18.882;2022-12-18T14:35:43;0.90;99.90
38380;DHT22;38377;47.418;18.882;2022-12-18T14:40:51;0.50;99.90
38380;DHT22;38377;47.418;18.882;2022-12-18T14:43:17;0.30;99.90
38380;DHT22;38377;47.418;18.882;2022-12-18T14:45:43;0.10;99.90
38380;DHT22;38377;47.418;18.882;2022-12-18T14:50:44;-0.20;99.90
38380;DHT22;38377;47.418;18.882;2022-12-18T14:53:43;-0.30;99.90
38380;DHT22;38377;47.418;18.882;2022-12-18T14:56:22;-0.50;99.90
38380;DHT22;38377;47.418;18.882;2022-12-18T14:58:54;-0.60;99.90
38380;DHT22;38377;47.418;18.882;2022-12-18T15:01:37;-0.60;99.90
38380;DHT22;38377;47.418;18.882;2022-12-18T15:04:05;-0.80;99.90
38380;DHT22;38377;47.418;18.882;2022-12-18T15:06:48;-0.90;99.90
38380;DHT22;38377;47.418;18.882;2022-12-18T15:09:23;-1.00;99.90
38380;DHT22;38377;47.418;18.882;2022-12-18T15:11:54;-1.10;99.90
38380;DHT22;38377;47.418;18.882;2022-12-18T15:16:55;-1.20;99.90
38380;DHT22;38377;47.418;18.882;2022-12-18T15:19:24;-1.30;99.90
38380;DHT22;38377;47.418;18.882;2022-12-18T15:21:52;-1.30;99.90
38380;DHT22;38377;47.418;18.882;2022-12-18T15:24:21;-1.40;99.90
38380;DHT22;38377;47.418;18.882;2022-12-18T15:26:48;-1.50;99.90
38380;DHT22;38377;47.418;18.882;2022-12-18T15:29:21;-1.50;99.90
38380;DHT22;38377;47.418;18.882;2022-12-18T15:32:19;-1.50;99.90
38380;DHT22;38377;47.418;18.882;2022-12-18T15:34:45;-1.50;99.90
38380;DHT22;38377;47.418;18.882;2022-12-18T15:37:10;-1.50;99.90
38380;DHT22;38377;47.418;18.882;2022-12-18T15:39:36;-1.50;99.90
38380;DHT22;38377;47.418;18.882;2022-12-18T15:42:02;-1.60;99.90
38380;DHT22;38377;47.418;18.882;2022-12-18T15:44:46;-1.70;99.90
38380;DHT22;38377;47.418;18.882;2022-12-18T15:47:12;-1.80;99.90
38380;DHT22;38377;47.418;18.882;2022-12-18T15:49:39;-1.90;99.90
38380;DHT22;38377;47.418;18.882;2022-12-18T15:52:05;-1.90;99.90
38380;DHT22;38377;47.418;18.882;2022-12-18T15:54:31;-2.00;99.90
38380;DHT22;38377;47.418;18.882;2022-12-18T15:57:15;-2.10;99.90
38380;DHT22;38377;47.418;18.882;2022-12-18T15:59:55;-2.20;99.90
38380;DHT22;38377;47.418;18.882;2022-12-18T16:02:24;-2.20;99.90
38380;DHT22;38377;47.418;18.882;2022-12-18T16:04:51;-2.30;99.90
38380;DHT22;38377;47.418;18.882;2022-12-18T16:07:17;-2.30;99.90
38380;DHT22;38377;47.418;18.882;2022-12-18T16:09:43;-2.30;99.90
38380;DHT22;38377;47.418;18.882;2022-12-18T16:12:20;-2.40;99.90
38380;DHT22;38377;47.418;18.882;2022-12-18T16:14:47;-2.40;99.90
38380;DHT22;38377;47.418;18.882;2022-12-18T16:17:14;-2.40;99.90
38380;DHT22;38377;47.418;18.882;2022-12-18T16:19:39;-2.40;99.90
38380;DHT22;38377;47.418;18.882;2022-12-18T16:22:05;-2.50;99.90
38380;DHT22;38377;47.418;18.882;2022-12-18T16:24:33;-2.50;99.90
38380;DHT22;38377;47.418;18.882;2022-12-18T16:27:01;-2.50;99.90
38380;DHT22;38377;47.418;18.882;2022-12-18T16:29:28;-2.60;99.90
38380;DHT22;38377;47.418;18.882;2022-12-18T16:31:55;-2.70;99.90
38380;DHT22;38377;47.418;18.882;2022-12-18T16:34:29;-2.70;99.90
38380;DHT22;38377;47.418;18.882;2022-12-18T16:37:00;-2.70;99.90
38380;DHT22;38377;47.418;18.882;2022-12-18T16:39:27;-2.80;99.90
38380;DHT22;38377;47.418;18.882;2022-12-18T16:41:52;-2.70;99.90
38380;DHT22;38377;47.418;18.882;2022-12-18T16:44:18;-2.80;99.90
38380;DHT22;38377;47.418;18.882;2022-12-18T16:46:44;-2.80;99.90
38380;DHT22;38377;47.418;18.882;2022-12-18T16:49:17;-2.90;99.90
38380;DHT22;38377;47.418;18.882;2022-12-18T16:51:43;-3.00;99.90
38380;DHT22;38377;47.418;18.882;2022-12-18T16:54:10;-3.00;99.90
38380;DHT22;38377;47.418;18.882;2022-12-18T16:56:36;-3.00;99.90
38380;DHT22;38377;47.418;18.882;2022-12-18T16:59:03;-3.10;99.90
38380;DHT22;38377;47.418;18.882;2022-12-18T17:01:31;-3.20;99.90
38380;DHT22;38377;47.418;18.882;2022-12-18T17:04:02;-3.20;99.90
38380;DHT22;38377;47.418;18.882;2022-12-18T17:06:31;-3.20;99.90
38380;DHT22;38377;47.418;18.882;2022-12-18T17:08:59;-3.30;99.90
38380;DHT22;38377;47.418;18.882;2022-12-18T17:11:26;-3.30;99.90
38380;DHT22;38377;47.418;18.882;2022-12-18T17:13:52;-3.30;99.90
38380;DHT22;38377;47.418;18.882;2022-12-18T17:16:17;-3.40;99.90
38380;DHT22;38377;47.418;18.882;2022-12-18T17:18:44;-3.40;99.90